Latest Weather Observations for Adelaide Airport

IDS60901

Issued at 6:11 pm CST Wednesday 26 June 2019 (issued every 10 minutes, with the page automatically refreshed every 10 minutes)

About weather observations | Map of Adelaide area stations | Latest observations for Adelaide area | Other Formats
Station Details ID: 023034 Name: ADELAIDE AIRPORT Lat: -34.95 Lon: 138.52 Height: 2.0 m
Data from the previous 72 hours. | See also: Recent months at Adelaide Airport
Date/Time
CST
Temp
°C
App
Temp
°C
Dew
Point
°C
Rel
Hum
%
Delta-T
°C
Wind Press
QNH
hPa
Press
MSL
hPa
Rain since
9am
mm
Dir  Spd
km/h
Gust
km/h
Spd
kts
Gust
kts
26/06:00pm 12.0 11.3 7.0 71 2.4 CALM 0 0 0 0 1027.5 1027.5 0.0
26/05:30pm 13.9 12.8 6.8 62 3.4 WNW 2 6 1 3 1027.4 1027.4 0.0
26/05:00pm 16.8 14.8 7.3 53 4.7 WNW 7 9 4 5 1027.4 1027.4 0.0
26/04:30pm 17.0 13.8 5.2 45 5.6 NW 11 13 6 7 1027.5 1027.5 0.0
26/04:00pm 17.5 14.3 5.1 44 5.9 NW 11 13 6 7 1027.6 1027.6 0.0
26/03:30pm 17.6 14.1 5.6 45 5.8 NW 13 17 7 9 1027.7 1027.7 0.0
26/03:00pm 18.1 13.8 5.2 42 6.2 NW 17 24 9 13 1027.8 1027.8 0.0
26/02:30pm 18.1 13.4 5.2 42 6.2 NNW 19 24 10 13 1027.9 1027.9 0.0
26/02:00pm 18.4 14.2 5.9 44 6.1 NNW 17 24 9 13 1028.2 1028.2 0.0
26/01:30pm 18.0 12.8 7.4 50 5.3 N 24 32 13 17 1028.6 1028.6 0.0
26/01:00pm 18.8 13.5 4.8 39 6.7 N 22 32 12 17 1029.0 1029.0 0.0
26/12:30pm 18.3 12.5 4.6 40 6.5 NNE 24 33 13 18 1029.6 1029.6 0.0
26/12:00pm 17.8 12.1 5.0 43 6.1 N 24 32 13 17 1030.3 1030.3 0.0
26/11:30am 17.6 11.6 5.3 44 5.9 N 26 32 14 17 1030.8 1030.8 0.0
26/11:00am 17.3 11.4 5.6 46 5.7 N 26 32 14 17 1031.0 1031.0 0.0
26/10:30am 16.6 11.0 5.5 48 5.3 N 24 30 13 16 1031.2 1031.2 0.0
26/10:00am 15.8 11.6 5.7 51 4.8 N 17 24 9 13 1031.4 1031.4 0.0
26/09:30am 14.6 11.2 5.7 55 4.2 NNE 13 19 7 10 1031.4 1031.4 0.0
26/09:00am 13.2 9.7 5.4 59 3.6 NE 13 15 7 8 1031.3 1031.3 0.0
26/08:30am 11.5 8.0 5.6 67 2.7 NE 13 15 7 8 1031.3 1031.3 0.0
26/08:00am 10.5 7.2 4.7 67 2.6 NNE 11 13 6 7 1031.0 1031.0 0.0
26/07:30am 9.9 6.5 4.2 67 2.5 NE 11 15 6 8 1030.6 1030.6 0.0
26/07:00am 9.3 5.1 4.0 69 2.3 NE 15 17 8 9 1030.3 1030.3 0.0
26/06:30am 10.2 5.9 3.5 63 2.9 NE 15 20 8 11 1030.3 1030.3 0.0
26/06:00am 10.0 5.7 3.2 62 2.9 NNE 15 17 8 9 1030.2 1030.2 0.0
26/05:30am 10.0 5.3 3.2 62 2.9 NNE 17 17 9 9 1030.0 1030.0 0.0
26/05:00am 10.0 5.7 3.0 62 3.0 NNE 15 15 8 8 1029.9 1029.9 0.0
26/04:30am 10.2 5.4 2.4 58 3.3 NNE 17 17 9 9 1029.9 1029.9 0.0
26/04:00am 10.2 5.7 2.4 58 3.3 NNE 15 17 8 9 1029.9 1029.9 0.0
26/03:30am 9.2 4.8 2.5 63 2.8 NE 15 20 8 11 1030.0 1030.0 0.0
26/03:00am 8.6 3.9 0.9 58 3.1 NE 15 19 8 10 1030.0 1030.0 0.0
26/02:30am 5.0 0.0 1.1 76 1.5 NE 17 19 9 10 1030.1 1030.1 0.0
26/02:00am 4.9 0.6 1.0 76 1.5 NE 13 15 7 8 1030.3 1030.3 0.0
26/01:30am 5.4 1.5 1.0 73 1.7 NNE 11 13 6 7 1030.4 1030.4 0.0
26/01:00am 5.4 1.9 1.3 75 1.6 NE 9 9 5 5 1030.5 1030.5 0.0
26/12:30am 5.4 2.2 1.0 73 1.7 NE 7 9 4 5 1030.7 1030.7 0.0
26/12:00am 5.4 2.3 1.3 75 1.6 ENE 7 9 4 5 1030.9 1030.9 0.0
 
Date/Time
CST
Temp
°C
App
Temp
°C
Dew
Point
°C
Rel
Hum
%
Delta-T
°C
Wind Press
QNH
hPa
Press
MSL
hPa
Rain since
9am
mm
Dir  Spd
km/h
Gust
km/h
Spd
kts
Gust
kts
25/11:30pm 6.3 3.2 1.5 71 1.9 ENE 7 7 4 4 1031.1 1031.1 0.0
25/11:00pm 7.1 3.9 0.7 64 2.5 ENE 7 7 4 4 1031.2 1031.2 0.0
25/10:30pm 6.7 2.3 0.5 64 2.4 ENE 13 15 7 8 1031.2 1031.2 0.0
25/10:00pm 5.9 2.7 3.0 82 1.2 ENE 9 9 5 5 1031.3 1031.3 0.0
25/09:30pm 6.7 4.1 3.3 79 1.4 E 6 7 3 4 1031.3 1031.3 0.0
25/09:00pm 7.1 5.7 3.8 79 1.4 CALM 0 0 0 0 1031.2 1031.2 0.0
25/08:30pm 8.1 6.7 3.6 73 1.9 CALM 0 0 0 0 1031.1 1031.1 0.0
25/08:00pm 8.8 6.3 3.7 70 2.2 E 6 7 3 4 1031.0 1031.0 0.0
25/07:30pm 9.5 6.9 4.0 68 2.4 E 7 9 4 5 1030.9 1030.9 0.0
25/07:00pm 9.8 7.1 3.5 65 2.7 E 7 9 4 5 1030.7 1030.7 0.0
25/06:30pm 10.3 9.1 4.4 67 2.6 CALM 0 0 0 0 1030.5 1030.5 0.0
25/06:00pm 11.2 8.5 3.7 60 3.3 SSE 7 7 4 4 1030.2 1030.2 0.0
25/05:30pm 12.3 9.6 3.5 55 3.9 SW 7 7 4 4 1030.0 1030.0 0.0
25/05:00pm 14.2 11.4 3.2 47 4.9 WNW 7 9 4 5 1029.9 1029.9 0.0
25/04:30pm 14.8 11.2 2.9 44 5.3 NW 11 13 6 7 1029.8 1029.8 0.0
25/04:00pm 15.0 10.9 2.0 41 5.7 WNW 13 15 7 8 1029.7 1029.7 0.0
25/03:30pm 15.0 10.9 2.3 42 5.6 NW 13 15 7 8 1029.7 1029.7 0.0
25/03:00pm 15.3 11.1 3.6 45 5.3 WNW 15 19 8 10 1029.8 1029.8 0.0
25/02:30pm 15.5 11.1 2.7 42 5.7 WNW 15 19 8 10 1029.7 1029.7 0.0
25/02:00pm 16.3 11.7 1.8 37 6.4 NNW 15 22 8 12 1029.8 1029.8 0.0
25/01:30pm 16.4 11.5 -0.5 31 7.1 NNW 15 28 8 15 1029.8 1029.8 0.0
25/01:00pm 15.9 10.9 -1.1 31 7.1 N 15 24 8 13 1030.0 1030.0 0.0
25/12:30pm 15.9 11.1 0.4 35 6.6 N 15 22 8 12 1030.3 1030.3 0.0
25/12:00pm 15.5 10.1 -1.0 32 6.8 N 17 24 9 13 1030.6 1030.6 0.0
25/11:30am 15.0 9.7 -0.8 34 6.5 N 17 22 9 12 1031.1 1031.1 0.0
25/11:00am 14.1 9.0 -1.7 33 6.4 NNE 15 19 8 10 1031.3 1031.3 0.0
25/10:30am 13.8 8.9 -0.7 37 5.9 NNE 15 20 8 11 1031.4 1031.4 0.0
25/10:00am 13.0 8.2 0.5 42 5.2 NNE 15 19 8 10 1031.3 1031.3 0.0
25/09:30am 12.0 6.7 -0.4 42 5.0 NNE 17 20 9 11 1031.4 1031.4 0.0
25/09:00am 11.2 6.9 0.7 48 4.3 NE 13 17 7 9 1031.0 1031.0 0.0
25/08:30am 9.3 5.1 1.8 59 3.1 NE 13 15 7 8 1030.7 1030.7 0.0
25/08:00am 7.1 2.8 1.0 65 2.4 NE 13 15 7 8 1030.4 1030.4 0.0
25/07:30am 6.9 2.5 0.2 62 2.6 NE 13 15 7 8 1030.2 1030.2 0.0
25/07:00am 6.6 1.8 0.4 64 2.4 NE 15 17 8 9 1029.8 1029.8 0.0
25/06:30am 7.0 2.2 0.3 62 2.6 NE 15 17 8 9 1029.7 1029.7 0.0
25/06:00am 7.3 3.7 0.7 63 2.6 NE 9 11 5 6 1029.7 1029.7 0.0
25/05:30am 9.5 4.7 0.2 52 3.7 NNE 15 17 8 9 1029.4 1029.4 0.0
25/05:00am 10.4 5.5 -0.5 47 4.3 N 15 17 8 9 1029.0 1029.0 0.0
25/04:30am 10.3 5.9 0.1 49 4.1 NNE 13 15 7 8 1028.9 1028.9 0.0
25/04:00am 10.6 5.7 -0.2 47 4.3 NNE 15 19 8 10 1029.0 1029.0 0.0
25/03:30am 11.1 6.6 -0.4 45 4.6 NNE 13 17 7 9 1028.9 1028.9 0.0
25/03:00am 11.1 5.4 -0.4 45 4.6 NNE 19 24 10 13 1028.5 1028.5 0.0
25/02:30am 11.0 5.1 -0.6 44 4.6 NNE 20 28 11 15 1028.3 1028.3 0.0
25/02:00am 10.7 5.1 0.0 47 4.3 NE 19 26 10 14 1028.2 1028.2 0.0
25/01:30am 10.6 5.0 0.2 48 4.2 NNE 19 26 10 14 1028.3 1028.3 0.0
25/01:00am 10.5 5.0 0.3 49 4.1 NNE 19 24 10 13 1028.6 1028.6 0.0
25/12:30am 10.3 4.8 0.4 50 4.0 NNE 19 24 10 13 1028.9 1028.9 0.0
25/12:00am 10.0 4.9 0.6 52 3.8 NNE 17 20 9 11 1029.0 1029.0 0.0
 
Date/Time
CST
Temp
°C
App
Temp
°C
Dew
Point
°C
Rel
Hum
%
Delta-T
°C
Wind Press
QNH
hPa
Press
MSL
hPa
Rain since
9am
mm
Dir  Spd
km/h
Gust
km/h
Spd
kts
Gust
kts
24/11:30pm 10.3 4.6 0.4 50 4.0 NNE 20 26 11 14 1029.1 1029.1 0.0
24/11:00pm 10.1 4.9 0.4 51 3.9 NNE 17 19 9 10 1029.3 1029.3 0.0
24/10:30pm 10.6 4.8 0.2 48 4.2 NNE 20 26 11 14 1029.1 1029.1 0.0
24/10:00pm 10.5 5.7 0.0 48 4.2 N 15 22 8 12 1029.2 1029.2 0.0
24/09:30pm 9.9 4.8 0.5 52 3.8 NNE 17 22 9 12 1029.0 1029.0 0.0
24/09:00pm 10.0 4.9 0.6 52 3.8 NNE 17 22 9 12 1028.8 1028.8 0.0
24/08:30pm 10.7 5.1 0.0 47 4.3 NE 19 22 10 12 1028.7 1028.7 0.0
24/08:00pm 10.9 5.7 -0.1 46 4.4 NNE 17 22 9 12 1028.8 1028.8 0.0
24/07:30pm 10.4 5.6 0.5 50 4.0 NNE 15 19 8 10 1028.8 1028.8 0.0
24/07:00pm 10.6 5.4 0.2 48 4.2 NE 17 20 9 11 1028.2 1028.2 0.0
24/06:30pm 10.5 5.7 0.4 49 4.1 NE 15 22 8 12 1028.0 1028.0 0.0
24/06:00pm 10.3 6.0 0.7 51 3.9 NE 13 17 7 9 1027.8 1027.8 0.0
24/05:30pm 10.6 5.8 0.2 48 4.2 NE 15 20 8 11 1027.5 1027.5 0.0
24/05:00pm 10.9 5.7 0.3 48 4.3 NNE 17 19 9 10 1027.4 1027.4 0.0
24/04:30pm 11.3 5.5 -0.4 44 4.7 NNE 20 26 11 14 1027.2 1027.2 0.0
24/04:00pm 11.4 5.6 0.0 45 4.6 NNE 20 26 11 14 1026.9 1026.9 0.0
24/03:30pm 11.7 5.5 -0.2 44 4.8 NNE 22 28 12 15 1027.2 1027.2 0.0
24/03:00pm 11.7 5.0 -0.9 41 5.0 NNE 24 33 13 18 1027.2 1027.2 0.0
24/02:30pm 11.6 4.5 -1.0 41 5.0 NNE 26 32 14 17 1027.6 1027.6 0.0
24/02:00pm 11.3 5.7 0.2 46 4.5 NNE 19 24 10 13 1028.1 1028.1 0.0
24/01:30pm 10.8 5.5 1.7 53 3.8 NNE 19 30 10 16 1028.3 1028.3 0.0
24/01:00pm 10.5 6.2 1.3 53 3.8 NNE 13 17 7 9 1028.9 1028.9 0.0
24/12:30pm 10.5 4.9 1.0 52 3.9 NNE 20 28 11 15 1029.5 1029.5 0.0
24/12:00pm 10.0 4.9 0.6 52 3.8 NNE 17 24 9 13 1029.9 1029.9 0.0
24/11:30am 10.1 4.7 1.0 53 3.7 NNE 19 26 10 14 1030.5 1030.5 0.0
24/11:00am 9.0 4.0 1.1 57 3.2 NNE 17 24 9 13 1030.9 1030.9 0.0
24/10:30am 7.9 2.9 1.2 62 2.7 NE 17 20 9 11 1031.0 1031.0 0.0
24/10:00am 7.4 2.7 1.1 64 2.5 NE 15 19 8 10 1030.9 1030.9 0.0
24/09:30am 7.2 2.3 2.0 69 2.1 NNE 17 22 9 12 1031.1 1031.1 0.0
24/09:00am 6.6 2.8 1.6 70 2.0 NE 11 15 6 8 1031.1 1031.1 0.0
24/08:30am 4.0 0.4 0.8 80 1.2 NNE 9 11 5 6 1030.8 1030.8 0.0
24/08:00am 2.1 -1.6 -0.1 85 0.8 ENE 9 9 5 5 1030.3 1030.3 0.0
24/07:30am 2.2 -1.5 -0.3 83 0.9 NW 9 13 5 7 1030.2 1030.2 0.0
24/07:00am 1.9 -2.2 0.0 87 0.7 NNW 11 15 6 8 1029.9 1029.9 0.0
24/06:30am 1.5 -0.5 -0.2 88 0.6 CALM 0 7 0 4 1029.6 1029.6 0.0
24/06:00am 0.3 -3.2 -1.5 88 0.6 NE 7 9 4 5 1029.7 1029.7 0.0
24/05:30am 0.3 - - - - ESE 2 7 1 4 1030.0 1030.0 0.0
24/05:00am 1.8 -1.0 -0.7 83 0.9 ESE 4 7 2 4 1030.1 1030.1 0.0
24/04:30am 3.6 0.3 0.1 78 1.3 SE 7 9 4 5 1030.0 1030.0 0.0
24/04:00am 6.4 2.7 -0.2 62 2.5 NE 9 11 5 6 1029.8 1029.8 0.0
24/03:30am 2.0 -1.8 -0.8 82 1.0 NNE 9 11 5 6 1029.7 1029.7 0.0
24/03:00am 2.6 -1.5 -0.4 80 1.1 NNE 11 11 6 6 1029.6 1029.6 0.0
24/02:30am 3.6 -0.1 -0.2 76 1.4 NE 9 13 5 7 1029.8 1029.8 0.0
24/02:00am 4.0 -0.5 -0.6 72 1.7 NE 13 15 7 8 1029.7 1029.7 0.0
24/01:30am 3.8 -0.4 -0.6 73 1.6 NE 11 13 6 7 1029.6 1029.6 0.0
24/01:00am 1.8 -2.4 -0.7 83 0.9 ENE 11 11 6 6 1029.9 1029.9 0.0
24/12:30am 2.1 -1.7 -0.4 83 0.9 ENE 9 11 5 6 1030.3 1030.3 0.0
24/12:00am 2.9 -0.2 0.2 82 1.0 ENE 6 7 3 4 1030.5 1030.5 0.0
 
Date/Time
CST
Temp
°C
App
Temp
°C
Dew
Point
°C
Rel
Hum
%
Delta-T
°C
Wind Press
QNH
hPa
Press
MSL
hPa
Rain since
9am
mm
Dir  Spd
km/h
Gust
km/h
Spd
kts
Gust
kts
23/11:30pm 2.9 -0.4 -0.1 81 1.1 ENE 7 9 4 5 1030.8 1030.8 0.0
23/11:00pm 3.2 -0.6 -0.7 75 1.4 E 9 9 5 5 1030.9 1030.9 0.0
23/10:30pm 3.7 0.0 -0.1 76 1.4 E 9 11 5 6 1030.9 1030.9 0.0
23/10:00pm 3.8 0.2 0.3 78 1.3 E 9 9 5 5 1031.0 1031.0 0.0
23/09:30pm 3.9 0.8 0.4 78 1.3 E 6 9 3 5 1030.9 1030.9 0.0
23/09:00pm 4.7 2.7 0.2 72 1.7 CALM 0 0 0 0 1031.0 1031.0 0.0
23/08:30pm 4.8 1.8 0.6 74 1.6 ENE 6 7 3 4 1030.9 1030.9 0.0
23/08:00pm 5.1 1.8 0.4 71 1.8 E 7 9 4 5 1030.8 1030.8 0.0
23/07:30pm 6.1 2.0 0.1 65 2.3 E 11 11 6 6 1030.7 1030.7 0.0
23/07:00pm 6.5 2.5 0.3 64 2.4 E 11 13 6 7 1030.4 1030.4 0.0
23/06:30pm 8.5 4.3 -0.9 51 3.6 E 11 13 6 7 1030.2 1030.2 0.0

Latest Capital City Observations: Canberra | Sydney | Melbourne | Brisbane | Adelaide | Perth | Hobart | Darwin

Other formats

Comma delimited format used in spreadsheet applications
http://www.bom.gov.au/fwo/IDS60901/IDS60901.94672.axf

JavaScript Object Notation format (JSON) in row-major order
http://www.bom.gov.au/fwo/IDS60901/IDS60901.94672.json

Data quality

Most of these data are generated automatically and are frequently updated. Quality checks on data are not normally performed. It is possible for incorrect values to appear. Refer to information at About Latest Weather Observations and please check the disclaimer before using these data.